Terminal Aerodrome Forecast
Issued by NWS Shreveport, LA

Home | Current Version | Previous Version | Text Only | Print | Product List | Glossary On
Versions: 1 2 3 4 5 6 7 8 9 10 11 12 13 14 15 16 17 18 19 20
000
FTUS44 KSHV 042200 AAA
TAFLFK
TAF AMD
KLFK 042239Z 0423/0518 19008KT P6SM VCSH SCT030 OVC080
     FM050100 35012KT P6SM -RA OVC012
     FM050600 01015G22KT 5SM -RA OVC007
     FM051500 02013G20KT P6SM OVC015=

USA.gov is the U.S. government's official web portal to all federal, state and local government web resources and services.